sensor_id;sensor_type;location;lat;lon;timestamp;pressure;altitude;pressure_sealevel;temperature;humidity
18858;BME280;9558;50.178;8.370;2022-08-03T00:00:51;98322.72;;;17.14;82.99
18858;BME280;9558;50.178;8.370;2022-08-03T00:03:17;98321.09;;;17.13;82.91
18858;BME280;9558;50.178;8.370;2022-08-03T00:05:44;98320.31;;;17.12;82.71
18858;BME280;9558;50.178;8.370;2022-08-03T00:08:12;98324.72;;;17.12;83.21
18858;BME280;9558;50.178;8.370;2022-08-03T00:10:38;98314.25;;;17.12;82.88
18858;BME280;9558;50.178;8.370;2022-08-03T00:13:05;98317.53;;;17.07;82.84
18858;BME280;9558;50.178;8.370;2022-08-03T00:15:31;98316.72;;;17.06;83.04
18858;BME280;9558;50.178;8.370;2022-08-03T00:17:58;98319.56;;;17.05;83.28
18858;BME280;9558;50.178;8.370;2022-08-03T00:20:24;98311.13;;;17.03;83.27
18858;BME280;9558;50.178;8.370;2022-08-03T00:22:51;98310.09;;;17.04;83.72
18858;BME280;9558;50.178;8.370;2022-08-03T00:25:19;98311.13;;;17.03;83.65
18858;BME280;9558;50.178;8.370;2022-08-03T00:27:46;98320.19;;;17.00;83.63
18858;BME280;9558;50.178;8.370;2022-08-03T00:30:12;98309.16;;;16.98;83.64
18858;BME280;9558;50.178;8.370;2022-08-03T00:32:39;98319.22;;;16.95;83.91
18858;BME280;9558;50.178;8.370;2022-08-03T00:35:06;98317.03;;;16.91;83.79
18858;BME280;9558;50.178;8.370;2022-08-03T00:37:33;98316.66;;;16.88;83.92
18858;BME280;9558;50.178;8.370;2022-08-03T00:39:59;98310.00;;;16.85;83.84
18858;BME280;9558;50.178;8.370;2022-08-03T00:42:27;98312.84;;;16.84;84.11
18858;BME280;9558;50.178;8.370;2022-08-03T00:44:54;98302.81;;;16.81;84.14
18858;BME280;9558;50.178;8.370;2022-08-03T00:47:20;98300.41;;;16.79;84.23
18858;BME280;9558;50.178;8.370;2022-08-03T00:49:47;98306.88;;;16.76;84.15
18858;BME280;9558;50.178;8.370;2022-08-03T00:52:14;98311.28;;;16.76;84.39
18858;BME280;9558;50.178;8.370;2022-08-03T00:54:41;98305.47;;;16.74;84.38
18858;BME280;9558;50.178;8.370;2022-08-03T00:57:08;98309.28;;;16.71;84.54
18858;BME280;9558;50.178;8.370;2022-08-03T00:59:36;98306.31;;;16.68;84.82
18858;BME280;9558;50.178;8.370;2022-08-03T01:02:04;98311.75;;;16.66;84.85
18858;BME280;9558;50.178;8.370;2022-08-03T01:04:31;98306.94;;;16.63;84.58
18858;BME280;9558;50.178;8.370;2022-08-03T01:07:02;98306.75;;;16.65;84.66
18858;BME280;9558;50.178;8.370;2022-08-03T01:09:39;98308.19;;;16.61;84.41
18858;BME280;9558;50.178;8.370;2022-08-03T01:12:12;98307.34;;;16.60;85.42
18858;BME280;9558;50.178;8.370;2022-08-03T01:14:48;98304.97;;;16.58;84.72
18858;BME280;9558;50.178;8.370;2022-08-03T01:17:22;98302.56;;;16.57;85.37
18858;BME280;9558;50.178;8.370;2022-08-03T01:19:55;98308.00;;;16.55;85.21
18858;BME280;9558;50.178;8.370;2022-08-03T01:22:43;98301.97;;;16.55;84.95
18858;BME280;9558;50.178;8.370;2022-08-03T01:25:23;98301.38;;;16.53;84.80
18858;BME280;9558;50.178;8.370;2022-08-03T01:28:02;98300.19;;;16.49;85.78
18858;BME280;9558;50.178;8.370;2022-08-03T01:30:37;98298.59;;;16.48;85.09
18858;BME280;9558;50.178;8.370;2022-08-03T01:33:11;98297.41;;;16.44;85.85
18858;BME280;9558;50.178;8.370;2022-08-03T01:35:43;98297.41;;;16.44;85.32
18858;BME280;9558;50.178;8.370;2022-08-03T01:38:13;98299.81;;;16.45;85.74
18858;BME280;9558;50.178;8.370;2022-08-03T01:40:41;98295.81;;;16.42;85.87
18858;BME280;9558;50.178;8.370;2022-08-03T01:43:11;98290.59;;;16.42;85.47
18858;BME280;9558;50.178;8.370;2022-08-03T01:45:39;98295.81;;;16.42;85.60
18858;BME280;9558;50.178;8.370;2022-08-03T01:48:07;98293.00;;;16.44;85.24
18858;BME280;9558;50.178;8.370;2022-08-03T01:50:34;98290.59;;;16.42;85.29
18858;BME280;9558;50.178;8.370;2022-08-03T01:53:01;98296.03;;;16.41;85.29
18858;BME280;9558;50.178;8.370;2022-08-03T01:55:30;98294.63;;;16.38;85.73
18858;BME280;9558;50.178;8.370;2022-08-03T01:57:59;98287.41;;;16.34;85.67
18858;BME280;9558;50.178;8.370;2022-08-03T02:00:28;98290.47;;;16.31;85.55
18858;BME280;9558;50.178;8.370;2022-08-03T02:02:57;98292.66;;;16.27;85.91
18858;BME280;9558;50.178;8.370;2022-08-03T02:05:25;98284.25;;;16.25;85.93
18858;BME280;9558;50.178;8.370;2022-08-03T02:07:53;98289.47;;;16.25;85.81
18858;BME280;9558;50.178;8.370;2022-08-03T02:10:20;98287.50;;;16.20;86.13
18858;BME280;9558;50.178;8.370;2022-08-03T02:12:48;98285.88;;;16.19;85.66
18858;BME280;9558;50.178;8.370;2022-08-03T02:15:17;98282.47;;;16.19;85.97
18858;BME280;9558;50.178;8.370;2022-08-03T02:17:46;98292.31;;;16.17;85.59
18858;BME280;9558;50.178;8.370;2022-08-03T02:20:15;98285.50;;;16.16;85.60
18858;BME280;9558;50.178;8.370;2022-08-03T02:22:43;98288.94;;;16.16;85.59
18858;BME280;9558;50.178;8.370;2022-08-03T02:25:13;98279.69;;;16.14;85.51
18858;BME280;9558;50.178;8.370;2022-08-03T02:27:44;98279.91;;;16.12;85.58
18858;BME280;9558;50.178;8.370;2022-08-03T02:30:12;98281.69;;;16.12;86.08
18858;BME280;9558;50.178;8.370;2022-08-03T02:32:40;98286.72;;;16.13;85.97
18858;BME280;9558;50.178;8.370;2022-08-03T02:35:10;98281.31;;;16.08;85.81
18858;BME280;9558;50.178;8.370;2022-08-03T02:37:43;98287.53;;;16.07;86.10
18858;BME280;9558;50.178;8.370;2022-08-03T02:40:12;98280.94;;;16.04;86.36
18858;BME280;9558;50.178;8.370;2022-08-03T02:42:41;98284.78;;;16.02;86.06
18858;BME280;9558;50.178;8.370;2022-08-03T02:45:11;98283.94;;;16.01;86.06
18858;BME280;9558;50.178;8.370;2022-08-03T02:47:39;98277.13;;;16.00;85.82
18858;BME280;9558;50.178;8.370;2022-08-03T02:50:08;98272.13;;;15.99;86.14
18858;BME280;9558;50.178;8.370;2022-08-03T02:52:37;98286.97;;;15.98;86.12
18858;BME280;9558;50.178;8.370;2022-08-03T02:55:08;98272.75;;;15.94;86.20
18858;BME280;9558;50.178;8.370;2022-08-03T02:57:36;98282.81;;;15.91;86.74
18858;BME280;9558;50.178;8.370;2022-08-03T03:00:04;98267.94;;;15.91;86.32
18858;BME280;9558;50.178;8.370;2022-08-03T03:02:33;98270.97;;;15.88;86.63
18858;BME280;9558;50.178;8.370;2022-08-03T03:05:00;98265.34;;;15.84;86.69
18858;BME280;9558;50.178;8.370;2022-08-03T03:07:27;98264.75;;;15.82;86.52
18858;BME280;9558;50.178;8.370;2022-08-03T03:09:54;98270.41;;;15.79;86.82
18858;BME280;9558;50.178;8.370;2022-08-03T03:12:23;98267.78;;;15.79;86.92
18858;BME280;9558;50.178;8.370;2022-08-03T03:14:51;98273.19;;;15.78;86.91
18858;BME280;9558;50.178;8.370;2022-08-03T03:17:18;98269.38;;;15.73;87.04
18858;BME280;9558;50.178;8.370;2022-08-03T03:19:47;98272.41;;;15.70;87.19
18858;BME280;9558;50.178;8.370;2022-08-03T03:22:16;98265.59;;;15.69;87.20
18858;BME280;9558;50.178;8.370;2022-08-03T03:24:43;98270.19;;;15.67;87.03
18858;BME280;9558;50.178;8.370;2022-08-03T03:27:13;98274.81;;;15.65;87.41
18858;BME280;9558;50.178;8.370;2022-08-03T03:29:41;98270.03;;;15.62;87.33
18858;BME280;9558;50.178;8.370;2022-08-03T03:32:08;98270.44;;;15.59;87.53
18858;BME280;9558;50.178;8.370;2022-08-03T03:34:35;98272.44;;;15.57;87.57
18858;BME280;9558;50.178;8.370;2022-08-03T03:37:01;98265.59;;;15.56;87.81
18858;BME280;9558;50.178;8.370;2022-08-03T03:39:29;98264.03;;;15.55;87.78
18858;BME280;9558;50.178;8.370;2022-08-03T03:41:56;98267.63;;;15.54;88.03
18858;BME280;9558;50.178;8.370;2022-08-03T03:44:25;98274.03;;;15.51;88.49
18858;BME280;9558;50.178;8.370;2022-08-03T03:46:54;98271.66;;;15.50;88.30
18858;BME280;9558;50.178;8.370;2022-08-03T03:49:21;98269.44;;;15.47;88.12
18858;BME280;9558;50.178;8.370;2022-08-03T03:51:48;98271.47;;;15.45;88.66
18858;BME280;9558;50.178;8.370;2022-08-03T03:54:14;98272.47;;;15.44;88.07
18858;BME280;9558;50.178;8.370;2022-08-03T03:56:41;98269.25;;;15.42;88.24
18858;BME280;9558;50.178;8.370;2022-08-03T03:59:07;98268.25;;;15.43;88.19
18858;BME280;9558;50.178;8.370;2022-08-03T04:01:34;98270.06;;;15.42;88.92
18858;BME280;9558;50.178;8.370;2022-08-03T04:04:02;98269.25;;;15.42;88.48
18858;BME280;9558;50.178;8.370;2022-08-03T04:06:48;98265.63;;;15.43;88.42
18858;BME280;9558;50.178;8.370;2022-08-03T04:09:34;98268.25;;;15.43;88.75
18858;BME280;9558;50.178;8.370;2022-08-03T04:12:21;98270.84;;;15.43;89.19
18858;BME280;9558;50.178;8.370;2022-08-03T04:14:50;98269.88;;;15.44;88.58
18858;BME280;9558;50.178;8.370;2022-08-03T04:17:20;98272.47;;;15.44;89.10
18858;BME280;9558;50.178;8.370;2022-08-03T04:19:52;98267.84;;;15.46;89.00
18858;BME280;9558;50.178;8.370;2022-08-03T04:22:23;98260.00;;;15.46;89.64
18858;BME280;9558;50.178;8.370;2022-08-03T04:24:54;98261.63;;;15.47;89.24
18858;BME280;9558;50.178;8.370;2022-08-03T04:27:25;98256.41;;;15.47;89.29
18858;BME280;9558;50.178;8.370;2022-08-03T04:29:53;98264.81;;;15.49;89.00
18858;BME280;9558;50.178;8.370;2022-08-03T04:32:22;98265.44;;;15.51;88.89
18858;BME280;9558;50.178;8.370;2022-08-03T04:34:54;98266.00;;;15.53;88.82
18858;BME280;9558;50.178;8.370;2022-08-03T04:37:25;98263.19;;;15.54;88.66
18858;BME280;9558;50.178;8.370;2022-08-03T04:39:57;98272.44;;;15.57;89.08
18858;BME280;9558;50.178;8.370;2022-08-03T04:42:27;98270.44;;;15.59;88.96
18858;BME280;9558;50.178;8.370;2022-08-03T04:44:56;98277.22;;;15.60;88.82
18858;BME280;9558;50.178;8.370;2022-08-03T04:47:23;98270.03;;;15.62;88.78
18858;BME280;9558;50.178;8.370;2022-08-03T04:49:50;98281.84;;;15.65;88.85
18858;BME280;9558;50.178;8.370;2022-08-03T04:52:19;98282.44;;;15.67;88.99
18858;BME280;9558;50.178;8.370;2022-08-03T04:54:45;98274.41;;;15.68;89.04
18858;BME280;9558;50.178;8.370;2022-08-03T04:57:13;98276.00;;;15.69;88.97
18858;BME280;9558;50.178;8.370;2022-08-03T04:59:40;98284.44;;;15.71;89.21
18858;BME280;9558;50.178;8.370;2022-08-03T05:02:07;98285.63;;;15.76;88.74
18858;BME280;9558;50.178;8.370;2022-08-03T05:04:33;98280.19;;;15.77;89.25
18858;BME280;9558;50.178;8.370;2022-08-03T05:07:00;98285.03;;;15.80;89.24
18858;BME280;9558;50.178;8.370;2022-08-03T05:09:28;98294.25;;;15.83;89.38
18858;BME280;9558;50.178;8.370;2022-08-03T05:11:54;98288.84;;;15.84;88.72
18858;BME280;9558;50.178;8.370;2022-08-03T05:14:21;98287.63;;;15.87;88.95
18858;BME280;9558;50.178;8.370;2022-08-03T05:16:48;98288.41;;;15.87;89.01
18858;BME280;9558;50.178;8.370;2022-08-03T05:19:14;98283.00;;;15.89;89.23
18858;BME280;9558;50.178;8.370;2022-08-03T05:21:41;98291.00;;;15.94;89.04
18858;BME280;9558;50.178;8.370;2022-08-03T05:24:07;98293.19;;;15.97;89.02
18858;BME280;9558;50.178;8.370;2022-08-03T05:26:35;98288.38;;;16.01;89.37
18858;BME280;9558;50.178;8.370;2022-08-03T05:29:02;98298.41;;;16.04;89.08
18858;BME280;9558;50.178;8.370;2022-08-03T05:31:28;98291.56;;;16.10;89.18
18858;BME280;9558;50.178;8.370;2022-08-03T05:33:56;98297.34;;;16.12;88.84
18858;BME280;9558;50.178;8.370;2022-08-03T05:36:22;98289.13;;;16.15;89.06
18858;BME280;9558;50.178;8.370;2022-08-03T05:38:49;98300.16;;;16.17;88.96
18858;BME280;9558;50.178;8.370;2022-08-03T05:41:15;98293.50;;;16.21;89.01
18858;BME280;9558;50.178;8.370;2022-08-03T05:43:43;98290.47;;;16.24;88.93
18858;BME280;9558;50.178;8.370;2022-08-03T05:46:10;98297.91;;;16.27;89.01
18858;BME280;9558;50.178;8.370;2022-08-03T05:48:36;98298.09;;;16.32;89.30
18858;BME280;9558;50.178;8.370;2022-08-03T05:51:03;98297.66;;;16.35;89.03
18858;BME280;9558;50.178;8.370;2022-08-03T05:53:32;98305.88;;;16.39;88.85
18858;BME280;9558;50.178;8.370;2022-08-03T05:55:58;98302.66;;;16.44;89.12
18858;BME280;9558;50.178;8.370;2022-08-03T05:58:25;98307.22;;;16.48;88.98
18858;BME280;9558;50.178;8.370;2022-08-03T06:00:53;98305.00;;;16.52;88.86
18858;BME280;9558;50.178;8.370;2022-08-03T06:03:19;98313.22;;;16.55;88.61
18858;BME280;9558;50.178;8.370;2022-08-03T06:05:46;98305.78;;;16.59;88.75
18858;BME280;9558;50.178;8.370;2022-08-03T06:08:12;98304.94;;;16.65;88.66
18858;BME280;9558;50.178;8.370;2022-08-03T06:10:39;98311.13;;;16.71;88.84
18858;BME280;9558;50.178;8.370;2022-08-03T06:13:05;98308.47;;;16.78;88.64
18858;BME280;9558;50.178;8.370;2022-08-03T06:15:32;98307.19;;;16.87;88.56
18858;BME280;9558;50.178;8.370;2022-08-03T06:18:00;98309.72;;;17.00;88.62
18858;BME280;9558;50.178;8.370;2022-08-03T06:20:27;98307.59;;;17.16;88.40
18858;BME280;9558;50.178;8.370;2022-08-03T06:22:54;98310.47;;;17.33;88.07
18858;BME280;9558;50.178;8.370;2022-08-03T06:25:21;98308.66;;;17.52;87.74
18858;BME280;9558;50.178;8.370;2022-08-03T06:27:47;98308.84;;;17.75;87.11
18858;BME280;9558;50.178;8.370;2022-08-03T06:30:14;98323.41;;;18.08;86.54
18858;BME280;9558;50.178;8.370;2022-08-03T06:32:41;98309.56;;;18.50;84.57
18858;BME280;9558;50.178;8.370;2022-08-03T06:35:09;98315.06;;;18.91;83.61
18858;BME280;9558;50.178;8.370;2022-08-03T06:37:42;98316.69;;;19.39;81.47
18858;BME280;9558;50.178;8.370;2022-08-03T06:40:11;98317.66;;;20.09;80.05
18858;BME280;9558;50.178;8.370;2022-08-03T06:42:37;98319.03;;;20.86;76.35
18858;BME280;9558;50.178;8.370;2022-08-03T06:45:05;98313.31;;;21.63;74.70
18858;BME280;9558;50.178;8.370;2022-08-03T06:47:33;98325.28;;;22.37;70.14
18858;BME280;9558;50.178;8.370;2022-08-03T06:49:59;98316.94;;;23.10;67.90
18858;BME280;9558;50.178;8.370;2022-08-03T06:52:27;98324.75;;;23.80;64.44
18858;BME280;9558;50.178;8.370;2022-08-03T06:54:54;98320.75;;;24.51;63.56
18858;BME280;9558;50.178;8.370;2022-08-03T06:57:21;98326.63;;;25.20;60.82
18858;BME280;9558;50.178;8.370;2022-08-03T06:59:47;98322.22;;;25.86;58.80
18858;BME280;9558;50.178;8.370;2022-08-03T07:02:14;98328.78;;;26.54;55.38
18858;BME280;9558;50.178;8.370;2022-08-03T07:04:40;98322.69;;;27.22;54.57
18858;BME280;9558;50.178;8.370;2022-08-03T07:07:07;98330.34;;;27.77;52.91
18858;BME280;9558;50.178;8.370;2022-08-03T07:09:34;98327.63;;;28.26;50.43
18858;BME280;9558;50.178;8.370;2022-08-03T07:12:01;98331.03;;;28.70;48.77
18858;BME280;9558;50.178;8.370;2022-08-03T07:14:28;98323.63;;;29.13;47.46
18858;BME280;9558;50.178;8.370;2022-08-03T07:16:55;98321.91;;;29.51;45.92
18858;BME280;9558;50.178;8.370;2022-08-03T07:19:21;98328.66;;;29.90;45.15
18858;BME280;9558;50.178;8.370;2022-08-03T07:21:48;98328.66;;;30.26;43.60
18858;BME280;9558;50.178;8.370;2022-08-03T07:24:14;98332.00;;;30.68;43.08
18858;BME280;9558;50.178;8.370;2022-08-03T07:26:42;98332.25;;;31.12;41.71
18858;BME280;9558;50.178;8.370;2022-08-03T07:29:09;98331.66;;;31.56;40.43
18858;BME280;9558;50.178;8.370;2022-08-03T07:31:35;98335.91;;;31.97;40.00
18858;BME280;9558;50.178;8.370;2022-08-03T07:34:03;98337.34;;;32.38;39.84
18858;BME280;9558;50.178;8.370;2022-08-03T07:36:30;98335.91;;;32.84;38.96
18858;BME280;9558;50.178;8.370;2022-08-03T07:38:56;98338.34;;;33.24;36.21
18858;BME280;9558;50.178;8.370;2022-08-03T07:41:23;98345.53;;;33.80;36.43
18858;BME280;9558;50.178;8.370;2022-08-03T07:43:51;98337.59;;;34.35;34.21
18858;BME280;9558;50.178;8.370;2022-08-03T07:46:18;98349.13;;;34.90;34.51
18858;BME280;9558;50.178;8.370;2022-08-03T07:48:44;98348.22;;;35.32;33.08
18858;BME280;9558;50.178;8.370;2022-08-03T07:51:10;98343.72;;;35.85;32.29
18858;BME280;9558;50.178;8.370;2022-08-03T07:53:37;98340.94;;;36.35;30.01
18858;BME280;9558;50.178;8.370;2022-08-03T07:56:04;98345.09;;;36.89;30.56
18858;BME280;9558;50.178;8.370;2022-08-03T07:58:30;98348.78;;;37.28;29.44
18858;BME280;9558;50.178;8.370;2022-08-03T08:00:58;98344.72;;;37.70;28.10
18858;BME280;9558;50.178;8.370;2022-08-03T08:03:25;98348.13;;;38.02;27.70
18858;BME280;9558;50.178;8.370;2022-08-03T08:05:51;98344.00;;;38.44;26.95
18858;BME280;9558;50.178;8.370;2022-08-03T08:08:19;98343.06;;;38.76;26.42
18858;BME280;9558;50.178;8.370;2022-08-03T08:10:45;98338.84;;;39.01;25.88
18858;BME280;9558;50.178;8.370;2022-08-03T08:13:12;98340.22;;;39.38;26.23
18858;BME280;9558;50.178;8.370;2022-08-03T08:15:39;98342.94;;;39.65;25.75
18858;BME280;9558;50.178;8.370;2022-08-03T08:18:07;98337.13;;;39.93;25.02
18858;BME280;9558;50.178;8.370;2022-08-03T08:20:34;98334.34;;;40.16;25.00
18858;BME280;9558;50.178;8.370;2022-08-03T08:23:05;98334.44;;;40.27;24.09
18858;BME280;9558;50.178;8.370;2022-08-03T08:25:32;98326.25;;;40.54;24.18
18858;BME280;9558;50.178;8.370;2022-08-03T08:27:59;98327.25;;;40.76;24.08
18858;BME280;9558;50.178;8.370;2022-08-03T08:30:27;98326.50;;;40.83;23.57
18858;BME280;9558;50.178;8.370;2022-08-03T08:32:54;98329.09;;;41.09;23.26
18858;BME280;9558;50.178;8.370;2022-08-03T08:35:23;98331.22;;;41.34;23.54
18858;BME280;9558;50.178;8.370;2022-08-03T08:37:49;98325.56;;;41.57;22.42
18858;BME280;9558;50.178;8.370;2022-08-03T08:40:19;98332.31;;;41.85;22.40
18858;BME280;9558;50.178;8.370;2022-08-03T08:42:46;98330.38;;;41.86;21.76
18858;BME280;9558;50.178;8.370;2022-08-03T08:45:13;98333.94;;;42.01;21.42
18858;BME280;9558;50.178;8.370;2022-08-03T08:47:44;98328.91;;;42.06;20.87
18858;BME280;9558;50.178;8.370;2022-08-03T08:50:12;98331.25;;;42.11;21.15
18858;BME280;9558;50.178;8.370;2022-08-03T08:52:40;98332.84;;;42.16;21.31
18858;BME280;9558;50.178;8.370;2022-08-03T08:55:10;98337.09;;;42.13;21.11
18858;BME280;9558;50.178;8.370;2022-08-03T08:57:44;98324.31;;;42.18;21.43
18858;BME280;9558;50.178;8.370;2022-08-03T09:00:12;98332.13;;;42.30;20.97
18858;BME280;9558;50.178;8.370;2022-08-03T09:02:39;98331.38;;;42.40;21.17
18858;BME280;9558;50.178;8.370;2022-08-03T09:05:09;98332.13;;;42.37;20.72
18858;BME280;9558;50.178;8.370;2022-08-03T09:07:36;98332.53;;;42.43;20.87
18858;BME280;9558;50.178;8.370;2022-08-03T09:10:05;98324.75;;;42.41;20.36
18858;BME280;9558;50.178;8.370;2022-08-03T09:12:36;98328.22;;;42.20;20.31
18858;BME280;9558;50.178;8.370;2022-08-03T09:15:19;98328.81;;;41.77;20.21
18858;BME280;9558;50.178;8.370;2022-08-03T09:17:46;98324.41;;;41.06;21.11
18858;BME280;9558;50.178;8.370;2022-08-03T09:20:13;98332.50;;;40.58;21.21
18858;BME280;9558;50.178;8.370;2022-08-03T09:22:51;98326.31;;;39.97;21.96
18858;BME280;9558;50.178;8.370;2022-08-03T09:25:24;98328.81;;;39.52;21.97
18858;BME280;9558;50.178;8.370;2022-08-03T09:27:52;98324.16;;;39.02;21.95
18858;BME280;9558;50.178;8.370;2022-08-03T09:30:18;98322.19;;;38.37;23.10
18858;BME280;9558;50.178;8.370;2022-08-03T09:32:45;98322.03;;;37.91;23.70
18858;BME280;9558;50.178;8.370;2022-08-03T09:35:13;98319.25;;;37.35;24.05
18858;BME280;9558;50.178;8.370;2022-08-03T09:37:39;98316.44;;;36.84;24.51
18858;BME280;9558;50.178;8.370;2022-08-03T09:40:07;98306.78;;;36.26;25.23
18858;BME280;9558;50.178;8.370;2022-08-03T09:42:35;98314.88;;;35.73;26.08
18858;BME280;9558;50.178;8.370;2022-08-03T09:45:03;98313.66;;;35.21;25.85
18858;BME280;9558;50.178;8.370;2022-08-03T09:47:31;98312.88;;;34.75;26.91
18858;BME280;9558;50.178;8.370;2022-08-03T09:49:59;98306.06;;;34.44;27.70
18858;BME280;9558;50.178;8.370;2022-08-03T09:52:31;98310.84;;;34.17;28.05
18858;BME280;9558;50.178;8.370;2022-08-03T09:54:58;98312.22;;;33.81;28.30
18858;BME280;9558;50.178;8.370;2022-08-03T09:57:27;98299.72;;;33.55;28.20
18858;BME280;9558;50.178;8.370;2022-08-03T10:00:06;98301.25;;;33.27;29.19
18858;BME280;9558;50.178;8.370;2022-08-03T10:02:34;98306.22;;;33.07;29.23
18858;BME280;9558;50.178;8.370;2022-08-03T10:05:01;98299.78;;;32.90;29.41
18858;BME280;9558;50.178;8.370;2022-08-03T10:07:27;98306.91;;;32.78;29.91
18858;BME280;9558;50.178;8.370;2022-08-03T10:09:56;98303.78;;;32.67;30.33
18858;BME280;9558;50.178;8.370;2022-08-03T10:12:23;98290.22;;;32.54;29.97
18858;BME280;9558;50.178;8.370;2022-08-03T10:14:50;98291.50;;;32.48;30.58
18858;BME280;9558;50.178;8.370;2022-08-03T10:17:19;98292.28;;;32.40;30.84
18858;BME280;9558;50.178;8.370;2022-08-03T10:19:46;98284.41;;;32.35;30.95
18858;BME280;9558;50.178;8.370;2022-08-03T10:22:14;98281.91;;;32.30;30.38
18858;BME280;9558;50.178;8.370;2022-08-03T10:24:49;98276.41;;;32.17;30.51
18858;BME280;9558;50.178;8.370;2022-08-03T10:27:18;98283.28;;;32.01;31.44
18858;BME280;9558;50.178;8.370;2022-08-03T10:29:50;98276.19;;;31.96;31.35
18858;BME280;9558;50.178;8.370;2022-08-03T10:32:20;98265.50;;;31.96;30.92
18858;BME280;9558;50.178;8.370;2022-08-03T10:34:49;98267.72;;;31.94;31.47
18858;BME280;9558;50.178;8.370;2022-08-03T10:37:16;98268.47;;;31.95;31.91
18858;BME280;9558;50.178;8.370;2022-08-03T10:39:44;98266.28;;;31.97;32.05
18858;BME280;9558;50.178;8.370;2022-08-03T10:42:20;98260.94;;;31.97;31.69
18858;BME280;9558;50.178;8.370;2022-08-03T10:44:51;98266.44;;;32.00;31.53
18858;BME280;9558;50.178;8.370;2022-08-03T10:47:22;98256.06;;;31.99;31.29
18858;BME280;9558;50.178;8.370;2022-08-03T10:49:49;98260.31;;;32.00;31.10
18858;BME280;9558;50.178;8.370;2022-08-03T10:52:16;98257.16;;;31.98;30.96
18858;BME280;9558;50.178;8.370;2022-08-03T10:54:43;98254.47;;;31.89;31.37
18858;BME280;9558;50.178;8.370;2022-08-03T10:57:48;98252.88;;;31.88;31.54
18858;BME280;9558;50.178;8.370;2022-08-03T11:00:15;98249.91;;;31.90;32.06
18858;BME280;9558;50.178;8.370;2022-08-03T11:03:04;98248.34;;;31.88;31.45
18858;BME280;9558;50.178;8.370;2022-08-03T11:05:34;98249.28;;;31.93;31.99
18858;BME280;9558;50.178;8.370;2022-08-03T11:08:25;98247.56;;;31.97;32.34
18858;BME280;9558;50.178;8.370;2022-08-03T11:10:54;98248.03;;;31.99;31.35
18858;BME280;9558;50.178;8.370;2022-08-03T11:13:22;98242.84;;;32.02;31.58
18858;BME280;9558;50.178;8.370;2022-08-03T11:15:52;98242.34;;;32.00;30.78
18858;BME280;9558;50.178;8.370;2022-08-03T11:18:20;98245.03;;;32.00;31.00
18858;BME280;9558;50.178;8.370;2022-08-03T11:20:48;98232.59;;;31.96;30.84
18858;BME280;9558;50.178;8.370;2022-08-03T11:23:18;98240.94;;;31.85;31.06
18858;BME280;9558;50.178;8.370;2022-08-03T11:26:08;98228.50;;;31.90;31.90
18858;BME280;9558;50.178;8.370;2022-08-03T11:28:35;98229.59;;;31.88;31.83
18858;BME280;9558;50.178;8.370;2022-08-03T11:34:23;98229.59;;;31.97;32.15
18858;BME280;9558;50.178;8.370;2022-08-03T11:37:21;98229.75;;;32.01;32.43
18858;BME280;9558;50.178;8.370;2022-08-03T11:39:51;98226.91;;;32.06;31.51
18858;BME280;9558;50.178;8.370;2022-08-03T11:42:42;98233.22;;;32.10;31.44
18858;BME280;9558;50.178;8.370;2022-08-03T11:45:11;98242.97;;;32.06;30.58
18858;BME280;9558;50.178;8.370;2022-08-03T11:47:39;98235.28;;;32.13;31.10
18858;BME280;9558;50.178;8.370;2022-08-03T11:50:07;98226.91;;;32.24;30.70
18858;BME280;9558;50.178;8.370;2022-08-03T11:52:37;98230.22;;;32.29;30.69
18858;BME280;9558;50.178;8.370;2022-08-03T11:55:17;98236.38;;;32.30;29.56
18858;BME280;9558;50.178;8.370;2022-08-03T11:57:45;98226.63;;;32.34;30.01
18858;BME280;9558;50.178;8.370;2022-08-03T12:00:22;98230.19;;;32.38;29.76
18858;BME280;9558;50.178;8.370;2022-08-03T12:03:01;98222.63;;;32.49;29.83
18858;BME280;9558;50.178;8.370;2022-08-03T12:05:37;98222.00;;;32.43;29.67
18858;BME280;9558;50.178;8.370;2022-08-03T12:08:05;98217.31;;;32.40;30.21
18858;BME280;9558;50.178;8.370;2022-08-03T12:10:31;98217.75;;;32.42;30.63
18858;BME280;9558;50.178;8.370;2022-08-03T12:12:59;98207.53;;;32.44;30.70
18858;BME280;9558;50.178;8.370;2022-08-03T12:15:26;98205.63;;;32.45;30.35
18858;BME280;9558;50.178;8.370;2022-08-03T12:17:54;98207.19;;;32.46;30.74
18858;BME280;9558;50.178;8.370;2022-08-03T12:20:23;98210.50;;;32.51;30.83
18858;BME280;9558;50.178;8.370;2022-08-03T12:22:52;98209.84;;;32.54;30.78
18858;BME280;9558;50.178;8.370;2022-08-03T12:25:23;98210.78;;;32.59;28.96
18858;BME280;9558;50.178;8.370;2022-08-03T12:27:50;98207.78;;;32.69;30.30
18858;BME280;9558;50.178;8.370;2022-08-03T12:30:17;98210.63;;;32.72;29.52
18858;BME280;9558;50.178;8.370;2022-08-03T12:32:44;98210.63;;;32.72;28.81
18858;BME280;9558;50.178;8.370;2022-08-03T12:35:20;98207.31;;;32.67;28.70
18858;BME280;9558;50.178;8.370;2022-08-03T12:37:49;98207.59;;;32.65;29.09
18858;BME280;9558;50.178;8.370;2022-08-03T12:40:24;98211.72;;;32.63;29.78
18858;BME280;9558;50.178;8.370;2022-08-03T12:42:52;98206.81;;;32.65;29.66
18858;BME280;9558;50.178;8.370;2022-08-03T12:45:23;98206.38;;;32.63;29.82
18858;BME280;9558;50.178;8.370;2022-08-03T12:47:51;98199.44;;;32.62;28.94
18858;BME280;9558;50.178;8.370;2022-08-03T12:50:26;98191.75;;;32.51;28.79
18858;BME280;9558;50.178;8.370;2022-08-03T12:52:53;98189.09;;;32.43;29.39
18858;BME280;9558;50.178;8.370;2022-08-03T12:55:21;98185.59;;;32.42;29.77
18858;BME280;9558;50.178;8.370;2022-08-03T12:57:49;98192.72;;;32.38;29.44
18858;BME280;9558;50.178;8.370;2022-08-03T13:00:17;98190.34;;;32.36;29.83
18858;BME280;9558;50.178;8.370;2022-08-03T13:02:44;98186.13;;;32.35;29.90
18858;BME280;9558;50.178;8.370;2022-08-03T13:05:12;98190.50;;;32.40;29.46
18858;BME280;9558;50.178;8.370;2022-08-03T13:07:40;98183.75;;;32.43;29.35
18858;BME280;9558;50.178;8.370;2022-08-03T13:10:08;98175.84;;;32.46;30.01
18858;BME280;9558;50.178;8.370;2022-08-03T13:12:45;98180.38;;;32.54;29.90
18858;BME280;9558;50.178;8.370;2022-08-03T13:15:14;98185.25;;;32.52;29.33
18858;BME280;9558;50.178;8.370;2022-08-03T13:17:41;98187.78;;;32.58;29.47
18858;BME280;9558;50.178;8.370;2022-08-03T13:20:08;98181.97;;;32.55;29.08
18858;BME280;9558;50.178;8.370;2022-08-03T13:22:35;98189.69;;;32.57;28.86